createdAt,value
2023-01-31T00:00:30.025Z,96160
2023-01-31T00:01:38.760Z,96164
2023-01-31T00:02:47.423Z,96167
2023-01-31T00:03:57.051Z,96169
2023-01-31T00:05:05.666Z,96177
2023-01-31T00:06:14.418Z,96160
2023-01-31T00:07:24.044Z,96162
2023-01-31T00:08:32.748Z,96166
2023-01-31T00:09:42.411Z,96167
2023-01-31T00:10:51.091Z,96167
2023-01-31T00:11:59.774Z,96165
2023-01-31T00:13:09.437Z,96166
2023-01-31T00:14:17.127Z,96166
2023-01-31T00:15:26.845Z,96161
2023-01-31T00:16:36.484Z,96161
2023-01-31T00:17:44.254Z,96161
2023-01-31T00:18:52.909Z,96170
2023-01-31T00:20:02.567Z,96161
2023-01-31T00:21:11.263Z,96150
2023-01-31T00:22:19.946Z,96170
2023-01-31T00:23:29.667Z,96164
2023-01-31T00:24:39.351Z,96177
2023-01-31T00:25:48.076Z,96160
2023-01-31T00:26:57.792Z,96159
2023-01-31T00:28:07.491Z,96157
2023-01-31T00:29:17.245Z,96164
2023-01-31T00:30:24.945Z,96161
2023-01-31T00:31:33.749Z,96165
2023-01-31T00:32:43.238Z,96162
2023-01-31T00:33:51.128Z,96164
2023-01-31T00:34:59.894Z,96167
2023-01-31T00:36:08.557Z,96173
2023-01-31T00:37:17.226Z,96166
2023-01-31T00:38:25.882Z,96174
2023-01-31T00:39:33.581Z,96164
2023-01-31T00:40:41.236Z,96175
2023-01-31T00:41:50.944Z,96162
2023-01-31T00:43:00.612Z,96167
2023-01-31T00:44:10.273Z,96172
2023-01-31T00:45:19.214Z,96167
2023-01-31T00:46:27.716Z,96160
2023-01-31T00:47:37.642Z,96166
2023-01-31T00:48:46.048Z,96143
2023-01-31T00:49:54.724Z,96164
2023-01-31T00:51:04.417Z,96162
2023-01-31T00:52:12.177Z,96168
2023-01-31T00:53:21.916Z,96162
2023-01-31T00:54:30.564Z,96162
2023-01-31T00:55:39.225Z,96169
2023-01-31T00:56:48.954Z,96153
2023-01-31T00:57:56.658Z,96152
2023-01-31T00:59:06.345Z,96135
2023-01-31T01:00:16.009Z,96132
2023-01-31T01:01:23.690Z,96139
2023-01-31T01:02:32.483Z,96153
2023-01-31T01:03:42.182Z,96155
2023-01-31T01:04:51.915Z,96163
2023-01-31T01:06:02.569Z,96162
2023-01-31T01:07:11.247Z,96163
2023-01-31T01:08:19.903Z,96167
2023-01-31T01:09:28.581Z,96161
2023-01-31T01:10:37.234Z,96162
2023-01-31T01:11:45.982Z,96148
2023-01-31T01:12:54.698Z,96160
2023-01-31T01:14:04.334Z,96153
2023-01-31T01:15:14.067Z,96151
2023-01-31T01:16:23.033Z,96155
2023-01-31T01:17:32.703Z,96157
2023-01-31T01:18:42.224Z,96153
2023-01-31T01:19:51.870Z,96163
2023-01-31T01:21:01.579Z,96169
2023-01-31T01:22:10.244Z,96163
2023-01-31T01:23:19.915Z,96166
2023-01-31T01:24:29.598Z,96164
2023-01-31T01:25:38.289Z,96163
2023-01-31T01:26:47.007Z,96163
2023-01-31T01:27:56.638Z,96175
2023-01-31T01:29:04.388Z,96170
2023-01-31T01:30:13.041Z,96173
2023-01-31T01:31:21.878Z,96173
2023-01-31T01:32:31.956Z,96173
2023-01-31T01:33:41.130Z,96175
2023-01-31T01:34:48.802Z,96180
2023-01-31T01:35:57.464Z,96169
2023-01-31T01:37:07.215Z,96175
2023-01-31T01:38:14.937Z,96174
2023-01-31T01:39:24.596Z,96170
2023-01-31T01:40:33.499Z,96167
2023-01-31T01:41:42.973Z,96169
2023-01-31T01:42:52.650Z,96179
2023-01-31T01:44:01.356Z,96170
2023-01-31T01:45:11.077Z,96176
2023-01-31T01:46:21.770Z,96180
2023-01-31T01:47:31.575Z,96179
2023-01-31T01:48:41.355Z,96183
2023-01-31T01:49:50.088Z,96180
2023-01-31T01:50:59.808Z,96179
2023-01-31T01:52:09.487Z,96183
2023-01-31T01:53:17.152Z,96181
2023-01-31T01:54:25.837Z,96190
2023-01-31T01:55:36.238Z,96175
2023-01-31T01:56:44.549Z,96184
2023-01-31T01:57:53.281Z,96182
2023-01-31T01:59:01.963Z,96180
2023-01-31T02:00:10.649Z,96180
2023-01-31T02:01:20.431Z,96187
2023-01-31T02:02:28.575Z,96180
2023-01-31T02:03:36.756Z,96185
2023-01-31T02:04:46.482Z,96189
2023-01-31T02:05:55.119Z,96190
2023-01-31T02:07:04.836Z,96190
2023-01-31T02:08:14.478Z,96188
2023-01-31T02:09:24.197Z,96181
2023-01-31T02:10:33.797Z,96188
2023-01-31T02:11:43.465Z,96195
2023-01-31T02:12:52.145Z,96188
2023-01-31T02:14:01.889Z,96185
2023-01-31T02:15:11.584Z,96191
2023-01-31T02:16:20.270Z,96187
2023-01-31T02:17:29.930Z,96192
2023-01-31T02:18:37.611Z,96204
2023-01-31T02:19:45.324Z,96195
2023-01-31T02:20:54.982Z,96198
2023-01-31T02:22:03.704Z,96212
2023-01-31T02:23:13.358Z,96204
2023-01-31T02:24:23.617Z,96210
2023-01-31T02:25:31.675Z,96211
2023-01-31T02:26:41.423Z,96206
2023-01-31T02:27:49.074Z,96207
2023-01-31T02:28:58.736Z,96207
2023-01-31T02:30:08.453Z,96207
2023-01-31T02:31:16.145Z,96213
2023-01-31T02:32:25.024Z,96211
2023-01-31T02:33:33.539Z,96205
2023-01-31T02:34:42.380Z,96207
2023-01-31T02:35:52.077Z,96205
2023-01-31T02:37:00.756Z,96200
2023-01-31T02:38:09.403Z,96202
2023-01-31T02:39:19.136Z,96200
2023-01-31T02:40:27.783Z,96203
2023-01-31T02:41:37.521Z,96194
2023-01-31T02:42:46.253Z,96196
2023-01-31T02:43:54.935Z,96200
2023-01-31T02:45:04.618Z,96203
2023-01-31T02:46:12.315Z,96204
2023-01-31T02:47:21.031Z,96205
2023-01-31T02:48:31.723Z,96204
2023-01-31T02:49:40.385Z,96211
2023-01-31T02:50:49.040Z,96211
2023-01-31T02:51:57.739Z,96209
2023-01-31T02:53:06.426Z,96216
2023-01-31T02:54:16.131Z,96204
2023-01-31T02:55:24.867Z,96211
2023-01-31T02:56:34.499Z,96202
2023-01-31T02:57:44.179Z,96207
2023-01-31T02:58:51.931Z,96202
2023-01-31T03:00:01.662Z,96206
2023-01-31T03:01:11.312Z,96205
2023-01-31T03:02:21.014Z,96205
2023-01-31T03:03:30.774Z,96215
2023-01-31T03:04:39.416Z,96207
2023-01-31T03:05:49.091Z,96217
2023-01-31T03:06:58.795Z,96206
2023-01-31T03:08:06.447Z,96217
2023-01-31T03:09:16.147Z,96215
2023-01-31T03:10:24.916Z,96223
2023-01-31T03:11:34.606Z,96219
2023-01-31T03:12:44.288Z,96220
2023-01-31T03:13:52.953Z,96226
2023-01-31T03:15:01.657Z,96218
2023-01-31T03:16:11.331Z,96218
2023-01-31T03:17:19.018Z,96216
2023-01-31T03:18:28.723Z,96214
2023-01-31T03:19:37.407Z,96218
2023-01-31T03:20:46.054Z,96209
2023-01-31T03:21:55.750Z,96233
2023-01-31T03:23:03.414Z,96219
2023-01-31T03:24:13.088Z,96218
2023-01-31T03:25:23.138Z,96211
2023-01-31T03:26:30.510Z,96214
2023-01-31T03:27:39.165Z,96238
2023-01-31T03:28:48.900Z,96234
2023-01-31T03:29:58.619Z,96233
2023-01-31T03:31:07.380Z,96243
2023-01-31T03:32:16.065Z,96242
2023-01-31T03:33:25.675Z,96248
2023-01-31T03:34:35.365Z,96247
2023-01-31T03:35:44.111Z,96248
2023-01-31T03:36:52.797Z,96252
2023-01-31T03:38:01.482Z,96256
2023-01-31T03:39:10.169Z,96249
2023-01-31T03:40:19.878Z,96247
2023-01-31T03:41:29.567Z,96253
2023-01-31T03:42:39.237Z,96247
2023-01-31T03:43:48.966Z,96251
2023-01-31T03:44:58.768Z,96264
2023-01-31T03:46:08.602Z,96264
2023-01-31T03:47:17.840Z,96260
2023-01-31T03:48:27.069Z,96252
2023-01-31T03:49:35.931Z,96252
2023-01-31T03:50:45.492Z,96252
2023-01-31T03:51:54.197Z,96242
2023-01-31T03:53:03.955Z,96248
2023-01-31T03:54:13.644Z,96255
2023-01-31T03:55:23.349Z,96259
2023-01-31T03:56:32.513Z,96264
2023-01-31T03:57:41.757Z,96265
2023-01-31T03:58:51.459Z,96267
2023-01-31T04:00:01.113Z,96265
2023-01-31T04:01:09.772Z,96263
2023-01-31T04:02:18.497Z,96261
2023-01-31T04:03:27.191Z,96259
2023-01-31T04:04:35.890Z,96260
2023-01-31T04:05:45.623Z,96264
2023-01-31T04:06:54.265Z,96258
2023-01-31T04:08:03.978Z,96269
2023-01-31T04:09:14.012Z,96266
2023-01-31T04:10:22.304Z,96259
2023-01-31T04:11:32.117Z,96257
2023-01-31T04:12:41.668Z,96269
2023-01-31T04:13:51.374Z,96267
2023-01-31T04:15:01.056Z,96269
2023-01-31T04:16:11.303Z,96272
2023-01-31T04:17:19.359Z,96280
2023-01-31T04:18:29.056Z,96279
2023-01-31T04:19:39.748Z,96280
2023-01-31T04:20:48.459Z,96277
2023-01-31T04:21:57.164Z,96277
2023-01-31T04:23:05.838Z,96282
2023-01-31T04:24:15.533Z,96279
2023-01-31T04:25:24.258Z,96280
2023-01-31T04:26:33.319Z,96287
2023-01-31T04:27:42.607Z,96277
2023-01-31T04:28:52.320Z,96281
2023-01-31T04:30:01.007Z,96274
2023-01-31T04:31:09.833Z,96283
2023-01-31T04:32:19.457Z,96285
2023-01-31T04:33:29.143Z,96282
2023-01-31T04:34:36.812Z,96283
2023-01-31T04:35:45.482Z,96288
2023-01-31T04:36:55.215Z,96284
2023-01-31T04:38:04.895Z,96284
2023-01-31T04:39:13.559Z,96284
2023-01-31T04:40:23.245Z,96286
2023-01-31T04:41:32.114Z,96293
2023-01-31T04:42:41.590Z,96292
2023-01-31T04:43:50.284Z,96286
2023-01-31T04:44:59.037Z,96291
2023-01-31T04:46:09.153Z,96296
2023-01-31T04:47:17.486Z,96294
2023-01-31T04:48:29.007Z,96297
2023-01-31T04:49:36.879Z,96294
2023-01-31T04:50:46.565Z,96296
2023-01-31T04:51:56.316Z,96302
2023-01-31T04:53:05.000Z,96301
2023-01-31T04:54:14.745Z,96296
2023-01-31T04:55:24.481Z,96299
2023-01-31T04:56:32.140Z,96303
2023-01-31T04:57:41.865Z,96298
2023-01-31T04:58:50.623Z,96310
2023-01-31T05:00:00.501Z,96316
2023-01-31T05:01:10.259Z,96318
2023-01-31T05:02:17.925Z,96318
2023-01-31T05:03:26.594Z,96321
2023-01-31T05:04:36.282Z,96320
2023-01-31T05:05:44.996Z,96314
2023-01-31T05:06:54.660Z,96319
2023-01-31T05:08:04.334Z,96314
2023-01-31T05:09:13.052Z,96327
2023-01-31T05:10:22.726Z,96315
2023-01-31T05:11:32.684Z,96326
2023-01-31T05:12:41.132Z,96321
2023-01-31T05:13:50.840Z,96321
2023-01-31T05:14:59.744Z,96316
2023-01-31T05:16:09.281Z,96318
2023-01-31T05:17:18.957Z,96321
2023-01-31T05:18:27.644Z,96321
2023-01-31T05:19:37.348Z,96330
2023-01-31T05:20:46.996Z,96342
2023-01-31T05:21:55.789Z,96326
2023-01-31T05:23:05.455Z,96330
2023-01-31T05:24:14.110Z,96334
2023-01-31T05:25:23.841Z,96338
2023-01-31T05:26:32.525Z,96331
2023-01-31T05:27:41.119Z,96331
2023-01-31T05:28:50.853Z,96334
2023-01-31T05:29:59.540Z,96334
2023-01-31T05:31:09.304Z,96335
2023-01-31T05:32:18.879Z,96332
2023-01-31T05:33:29.380Z,96338
2023-01-31T05:34:37.421Z,96331
2023-01-31T05:35:45.115Z,96338
2023-01-31T05:36:53.773Z,96332
2023-01-31T05:38:03.508Z,96345
2023-01-31T05:39:11.147Z,96332
2023-01-31T05:40:20.868Z,96333
2023-01-31T05:41:31.161Z,96331
2023-01-31T05:42:38.230Z,96332
2023-01-31T05:43:46.921Z,96334
2023-01-31T05:44:55.588Z,96332
2023-01-31T05:46:04.444Z,96336
2023-01-31T05:47:13.940Z,96344
2023-01-31T05:48:22.604Z,96338
2023-01-31T05:49:31.288Z,96341
2023-01-31T05:50:40.954Z,96341
2023-01-31T05:51:49.684Z,96340
2023-01-31T05:52:59.301Z,96349
2023-01-31T05:54:08.971Z,96355
2023-01-31T05:55:18.109Z,96355
2023-01-31T05:56:27.378Z,96345
2023-01-31T05:57:36.058Z,96344
2023-01-31T05:58:44.708Z,96349
2023-01-31T05:59:54.395Z,96354
2023-01-31T06:01:04.052Z,96348
2023-01-31T06:02:13.798Z,96356
2023-01-31T06:03:23.539Z,96354
2023-01-31T06:04:32.177Z,96348
2023-01-31T06:05:41.758Z,96353
2023-01-31T06:06:50.421Z,96349
2023-01-31T06:07:59.170Z,96347
2023-01-31T06:09:08.851Z,96357
2023-01-31T06:10:19.627Z,96357
2023-01-31T06:11:27.157Z,96359
2023-01-31T06:12:35.816Z,96348
2023-01-31T06:13:43.499Z,96352
2023-01-31T06:14:52.145Z,96347
2023-01-31T06:16:01.835Z,96353
2023-01-31T06:17:09.518Z,96354
2023-01-31T06:18:18.244Z,96344
2023-01-31T06:19:26.923Z,96351
2023-01-31T06:20:36.610Z,96346
2023-01-31T06:21:46.279Z,96339
2023-01-31T06:22:54.935Z,96343
2023-01-31T06:24:03.643Z,96334
2023-01-31T06:25:13.356Z,96335
2023-01-31T06:26:21.086Z,96337
2023-01-31T06:27:30.755Z,96332
2023-01-31T06:28:39.496Z,96330
2023-01-31T06:29:49.097Z,96330
2023-01-31T06:30:59.094Z,96328
2023-01-31T06:32:06.467Z,96330
2023-01-31T06:33:15.133Z,96326
2023-01-31T06:34:25.793Z,96331
2023-01-31T06:35:34.505Z,96337
2023-01-31T06:36:43.195Z,96340
2023-01-31T06:37:51.879Z,96346
2023-01-31T06:39:00.548Z,96344
2023-01-31T06:40:10.278Z,96347
2023-01-31T06:41:19.939Z,96353
2023-01-31T06:42:29.593Z,96359
2023-01-31T06:43:38.293Z,96358
2023-01-31T06:44:46.971Z,96364
2023-01-31T06:45:56.254Z,96363
2023-01-31T06:47:04.349Z,96357
2023-01-31T06:48:14.068Z,96360
2023-01-31T06:49:23.770Z,96359
2023-01-31T06:50:31.654Z,96351
2023-01-31T06:51:41.143Z,96366
2023-01-31T06:52:50.848Z,96352
2023-01-31T06:53:58.516Z,96361
2023-01-31T06:55:09.245Z,96358
2023-01-31T06:56:16.939Z,96359
2023-01-31T06:57:25.574Z,96367
2023-01-31T06:58:35.322Z,96360
2023-01-31T06:59:42.994Z,96360
2023-01-31T07:00:51.733Z,96362
2023-01-31T07:02:01.408Z,96362
2023-01-31T07:03:10.099Z,96367
2023-01-31T07:04:18.835Z,96367
2023-01-31T07:05:27.434Z,96378
2023-01-31T07:06:36.103Z,96378
2023-01-31T07:07:45.784Z,96374
2023-01-31T07:08:53.437Z,96377
2023-01-31T07:10:02.102Z,96378
2023-01-31T07:11:10.777Z,96379
2023-01-31T07:12:20.495Z,96383
2023-01-31T07:13:30.243Z,96383
2023-01-31T07:14:39.805Z,96377
2023-01-31T07:15:49.540Z,96380
2023-01-31T07:16:59.168Z,96374
2023-01-31T07:18:06.850Z,96387
2023-01-31T07:19:16.512Z,96364
2023-01-31T07:20:26.212Z,96372
2023-01-31T07:21:33.892Z,96367
2023-01-31T07:22:43.569Z,96372
2023-01-31T07:23:51.267Z,96370
2023-01-31T07:24:59.900Z,96373
2023-01-31T07:26:09.589Z,96382
2023-01-31T07:27:18.274Z,96378
2023-01-31T07:28:27.946Z,96383
2023-01-31T07:29:38.473Z,96384
2023-01-31T07:30:46.405Z,96371
2023-01-31T07:31:56.011Z,96384
2023-01-31T07:33:04.597Z,96388
2023-01-31T07:34:14.261Z,96381
2023-01-31T07:35:23.971Z,96381
2023-01-31T07:36:32.245Z,96373
2023-01-31T07:37:41.305Z,96386
2023-01-31T07:38:51.034Z,96377
2023-01-31T07:39:59.743Z,96382
2023-01-31T07:41:09.427Z,96378
2023-01-31T07:42:19.108Z,96372
2023-01-31T07:43:27.783Z,96373
2023-01-31T07:44:37.481Z,96374
2023-01-31T07:45:47.165Z,96372
2023-01-31T07:46:55.823Z,96383
2023-01-31T07:48:05.514Z,96376
2023-01-31T07:49:14.170Z,96378
2023-01-31T07:50:22.899Z,96385
2023-01-31T07:51:32.576Z,96385
2023-01-31T07:52:41.302Z,96375
2023-01-31T07:53:50.959Z,96374
2023-01-31T07:54:59.673Z,96375
2023-01-31T07:56:08.295Z,96380
2023-01-31T07:57:17.958Z,96380
2023-01-31T07:58:26.631Z,96383
2023-01-31T07:59:35.308Z,96376
2023-01-31T08:00:44.032Z,96383
2023-01-31T08:01:52.656Z,96375
2023-01-31T08:03:02.355Z,96383
2023-01-31T08:04:20.913Z,96377
2023-01-31T08:05:20.934Z,96384
2023-01-31T08:06:30.641Z,96389
2023-01-31T08:07:40.012Z,96378
2023-01-31T08:08:48.696Z,96380
2023-01-31T08:09:58.364Z,96394
2023-01-31T08:11:07.037Z,96382
2023-01-31T08:12:16.695Z,96376
2023-01-31T08:13:26.360Z,96381
2023-01-31T08:14:35.034Z,96381
2023-01-31T08:15:45.724Z,96382
2023-01-31T08:16:54.432Z,96376
2023-01-31T08:18:06.272Z,96377
2023-01-31T08:19:13.774Z,96377
2023-01-31T08:20:21.435Z,96391
2023-01-31T08:21:30.550Z,96375
2023-01-31T08:22:39.796Z,96377
2023-01-31T08:23:47.497Z,96384
2023-01-31T08:24:56.167Z,96381
2023-01-31T08:26:04.863Z,96397
2023-01-31T08:27:13.530Z,96391
2023-01-31T08:28:23.222Z,96391
2023-01-31T08:29:32.929Z,96393
2023-01-31T08:30:42.580Z,96386
2023-01-31T08:31:53.366Z,96385
2023-01-31T08:33:02.941Z,96385
2023-01-31T08:34:11.573Z,96389
2023-01-31T08:35:20.590Z,96396
2023-01-31T08:36:29.586Z,96400
2023-01-31T08:37:38.587Z,96394
2023-01-31T08:38:48.306Z,96398
2023-01-31T08:39:57.914Z,96394
2023-01-31T08:41:08.272Z,96401
2023-01-31T08:42:17.221Z,96418
2023-01-31T08:43:25.889Z,96413
2023-01-31T08:44:35.637Z,96405
2023-01-31T08:45:44.297Z,96401
2023-01-31T08:46:54.065Z,96395
2023-01-31T08:48:01.641Z,96396
2023-01-31T08:49:10.362Z,96390
2023-01-31T08:50:27.524Z,96389
2023-01-31T08:51:30.647Z,96390
2023-01-31T08:52:39.313Z,96389
2023-01-31T08:53:49.013Z,96397
2023-01-31T08:54:58.658Z,96397
2023-01-31T08:56:08.322Z,96395
2023-01-31T08:57:17.017Z,96403
2023-01-31T08:58:25.668Z,96393
2023-01-31T08:59:35.351Z,96393
2023-01-31T09:00:43.028Z,96394
2023-01-31T09:01:51.784Z,96390
2023-01-31T09:03:00.499Z,96395
2023-01-31T09:04:09.091Z,96392
2023-01-31T09:05:19.109Z,96399
2023-01-31T09:06:28.974Z,96388
2023-01-31T09:07:38.119Z,96386
2023-01-31T09:08:47.820Z,96392
2023-01-31T09:09:55.490Z,96385
2023-01-31T09:11:05.137Z,96391
2023-01-31T09:12:14.846Z,96382
2023-01-31T09:13:23.553Z,96402
2023-01-31T09:14:33.596Z,96392
2023-01-31T09:15:41.940Z,96387
2023-01-31T09:16:51.666Z,96393
2023-01-31T09:18:01.341Z,96393
2023-01-31T09:19:09.054Z,96388
2023-01-31T09:20:18.747Z,96391
2023-01-31T09:21:27.448Z,96384
2023-01-31T09:22:37.114Z,96385
2023-01-31T09:23:46.831Z,96388
2023-01-31T09:24:54.457Z,96390
2023-01-31T09:26:03.125Z,96386
2023-01-31T09:27:12.845Z,96384
2023-01-31T09:28:21.527Z,96387
2023-01-31T09:29:31.249Z,96388
2023-01-31T09:30:41.938Z,96388
2023-01-31T09:31:50.651Z,96385
2023-01-31T09:33:00.337Z,96395
2023-01-31T09:34:09.037Z,96398
2023-01-31T09:35:19.091Z,96385
2023-01-31T09:36:28.655Z,96387
2023-01-31T09:37:38.222Z,96390
2023-01-31T09:38:47.903Z,96398
2023-01-31T09:39:57.581Z,96395
2023-01-31T09:41:06.253Z,96400
2023-01-31T09:42:16.207Z,96393
2023-01-31T09:43:25.657Z,96392
2023-01-31T09:44:33.339Z,96400
2023-01-31T09:45:42.981Z,96398
2023-01-31T09:46:52.685Z,96412
2023-01-31T09:48:01.422Z,96387
2023-01-31T09:49:11.209Z,96406
2023-01-31T09:50:19.772Z,96403
2023-01-31T09:51:28.583Z,96397
2023-01-31T09:52:36.416Z,96415
2023-01-31T09:53:44.898Z,96393
2023-01-31T09:54:54.534Z,96397
2023-01-31T09:56:02.199Z,96400
2023-01-31T09:57:11.913Z,96403
2023-01-31T09:58:21.554Z,96420
2023-01-31T09:59:30.756Z,96411
2023-01-31T10:00:40.073Z,96405
2023-01-31T10:01:48.575Z,96408
2023-01-31T10:02:58.223Z,96407
2023-01-31T10:04:07.885Z,96409
2023-01-31T10:05:16.562Z,96413
2023-01-31T10:06:26.211Z,96408
2023-01-31T10:07:34.876Z,96415
2023-01-31T10:08:44.559Z,96409
2023-01-31T10:09:53.270Z,96401
2023-01-31T10:11:02.935Z,96413
2023-01-31T10:12:10.621Z,96405
2023-01-31T10:13:20.310Z,96407
2023-01-31T10:14:30.440Z,96411
2023-01-31T10:15:38.668Z,96408
2023-01-31T10:16:48.435Z,96399
2023-01-31T10:17:56.109Z,96396
2023-01-31T10:19:05.775Z,96399
2023-01-31T10:20:15.449Z,96393
2023-01-31T10:21:24.104Z,96389
2023-01-31T10:22:33.867Z,96377
2023-01-31T10:23:42.517Z,96371
2023-01-31T10:24:51.194Z,96363
2023-01-31T10:26:00.907Z,96372
2023-01-31T10:27:11.541Z,96365
2023-01-31T10:28:21.230Z,96358
2023-01-31T10:29:30.903Z,96359
2023-01-31T10:30:39.626Z,96378
2023-01-31T10:31:49.352Z,96381
2023-01-31T10:32:58.031Z,96363
2023-01-31T10:34:07.715Z,96354
2023-01-31T10:35:17.403Z,96372
2023-01-31T10:36:26.083Z,96367
2023-01-31T10:37:34.740Z,96380
2023-01-31T10:38:45.418Z,96383
2023-01-31T10:39:54.130Z,96377
2023-01-31T10:41:02.809Z,96380
2023-01-31T10:42:11.599Z,96359
2023-01-31T10:43:20.139Z,96350
2023-01-31T10:44:30.279Z,96348
2023-01-31T10:45:37.345Z,96362
2023-01-31T10:46:46.254Z,96354
2023-01-31T10:47:55.915Z,96376
2023-01-31T10:49:04.570Z,96364
2023-01-31T10:50:13.248Z,96357
2023-01-31T10:51:21.974Z,96355
2023-01-31T10:52:29.618Z,96346
2023-01-31T10:53:39.314Z,96349
2023-01-31T10:54:47.256Z,96356
2023-01-31T10:55:55.620Z,96356
2023-01-31T10:57:05.376Z,96340
2023-01-31T10:58:14.087Z,96341
2023-01-31T10:59:23.727Z,96357
2023-01-31T11:00:32.359Z,96343
2023-01-31T11:01:41.072Z,96347
2023-01-31T11:02:50.825Z,96345
2023-01-31T11:03:58.498Z,96347
2023-01-31T11:05:08.195Z,96349
2023-01-31T11:06:17.878Z,96345
2023-01-31T11:07:26.562Z,96342
2023-01-31T11:08:35.269Z,96341
2023-01-31T11:09:43.942Z,96330
2023-01-31T11:10:52.627Z,96330
2023-01-31T11:12:02.310Z,96329
2023-01-31T11:13:10.979Z,96324
2023-01-31T11:14:19.713Z,96329
2023-01-31T11:15:29.377Z,96332
2023-01-31T11:16:38.156Z,96334
2023-01-31T11:17:47.778Z,96326
2023-01-31T11:18:58.310Z,96321
2023-01-31T11:20:07.158Z,96324
2023-01-31T11:21:16.845Z,96319
2023-01-31T11:22:25.533Z,96312
2023-01-31T11:23:34.260Z,96312
2023-01-31T11:24:43.904Z,96303
2023-01-31T11:25:52.592Z,96305
2023-01-31T11:27:02.260Z,96307
2023-01-31T11:28:10.930Z,96299
2023-01-31T11:29:20.590Z,96303
2023-01-31T11:30:30.506Z,96293
2023-01-31T11:31:40.115Z,96294
2023-01-31T11:32:48.768Z,96295
2023-01-31T11:33:58.414Z,96297
2023-01-31T11:35:08.113Z,96285
2023-01-31T11:36:17.777Z,96289
2023-01-31T11:37:26.472Z,96290
2023-01-31T11:38:36.137Z,96288
2023-01-31T11:39:45.862Z,96272
2023-01-31T11:40:54.544Z,96264
2023-01-31T11:42:03.187Z,96269
2023-01-31T11:43:12.887Z,96272
2023-01-31T11:44:20.534Z,96266
2023-01-31T11:45:29.198Z,96269
2023-01-31T11:46:37.961Z,96255
2023-01-31T11:47:46.555Z,96254
2023-01-31T11:48:56.243Z,96255
2023-01-31T11:50:05.901Z,96264
2023-01-31T11:51:14.579Z,96256
2023-01-31T11:52:24.234Z,96260
2023-01-31T11:53:31.922Z,96258
2023-01-31T11:54:40.664Z,96263
2023-01-31T11:55:49.333Z,96251
2023-01-31T11:56:58.992Z,96253
2023-01-31T11:58:08.673Z,96249
2023-01-31T11:59:17.362Z,96244
2023-01-31T12:00:25.038Z,96246
2023-01-31T12:01:34.723Z,96239
2023-01-31T12:02:42.473Z,96235
2023-01-31T12:04:02.357Z,96230
2023-01-31T12:05:02.788Z,96242
2023-01-31T12:06:12.488Z,96235
2023-01-31T12:07:21.177Z,96226
2023-01-31T12:08:30.850Z,96226
2023-01-31T12:09:38.529Z,96226
2023-01-31T12:10:48.204Z,96230
2023-01-31T12:11:57.920Z,96223
2023-01-31T12:13:18.032Z,96216
2023-01-31T12:14:18.234Z,96216
2023-01-31T12:15:26.957Z,96219
2023-01-31T12:16:36.664Z,96211
2023-01-31T12:17:46.355Z,96197
2023-01-31T12:18:55.986Z,96199
2023-01-31T12:20:21.286Z,96192
2023-01-31T12:21:16.287Z,96186
2023-01-31T12:22:25.934Z,96194
2023-01-31T12:23:35.631Z,96190
2023-01-31T12:24:44.283Z,96195
2023-01-31T12:25:51.948Z,96186
2023-01-31T12:27:01.617Z,96195
2023-01-31T12:28:10.352Z,96202
2023-01-31T12:29:20.090Z,96200
2023-01-31T12:30:29.846Z,96212
2023-01-31T12:31:38.519Z,96209
2023-01-31T12:32:48.137Z,96222
2023-01-31T12:33:56.808Z,96215
2023-01-31T12:35:08.840Z,96215
2023-01-31T12:36:15.126Z,96216
2023-01-31T12:37:23.810Z,96209
2023-01-31T12:38:32.479Z,96209
2023-01-31T12:39:42.189Z,96198
2023-01-31T12:40:51.877Z,96203
2023-01-31T12:42:01.638Z,96204
2023-01-31T12:43:11.275Z,96197
2023-01-31T12:44:20.938Z,96197
2023-01-31T12:45:30.604Z,96200
2023-01-31T12:46:39.319Z,96186
2023-01-31T12:47:47.974Z,96197
2023-01-31T12:48:57.641Z,96186
2023-01-31T12:50:07.347Z,96193
2023-01-31T12:51:17.022Z,96187
2023-01-31T12:52:27.741Z,96191
2023-01-31T12:53:37.748Z,96191
2023-01-31T12:54:47.438Z,96196
2023-01-31T12:55:56.111Z,96189
2023-01-31T12:57:05.790Z,96187
2023-01-31T12:58:15.542Z,96188
2023-01-31T12:59:23.216Z,96195
2023-01-31T13:00:31.877Z,96186
2023-01-31T13:01:40.660Z,96189
2023-01-31T13:02:49.294Z,96194
2023-01-31T13:03:58.904Z,96192
2023-01-31T13:05:07.584Z,96189
2023-01-31T13:06:17.276Z,96185
2023-01-31T13:07:26.929Z,96188
2023-01-31T13:08:35.636Z,96186
2023-01-31T13:09:46.333Z,96179
2023-01-31T13:10:55.991Z,96188
2023-01-31T13:12:05.699Z,96186
2023-01-31T13:13:15.378Z,96177
2023-01-31T13:14:24.008Z,96181
2023-01-31T13:15:32.760Z,96170
2023-01-31T13:16:41.417Z,96169
2023-01-31T13:17:51.073Z,96176
2023-01-31T13:18:58.728Z,96160
2023-01-31T13:20:07.384Z,96174
2023-01-31T13:21:17.117Z,96158
2023-01-31T13:22:26.862Z,96160
2023-01-31T13:23:36.514Z,96153
2023-01-31T13:24:46.191Z,96152
2023-01-31T13:25:54.856Z,96161
2023-01-31T13:27:04.545Z,96158
2023-01-31T13:28:14.251Z,96167
2023-01-31T13:29:22.921Z,96161
2023-01-31T13:30:32.657Z,96159
2023-01-31T13:31:41.439Z,96145
2023-01-31T13:32:50.050Z,96149
2023-01-31T13:33:59.737Z,96142
2023-01-31T13:35:08.399Z,96137
2023-01-31T13:36:18.097Z,96125
2023-01-31T13:37:25.748Z,96126
2023-01-31T13:38:34.466Z,96117
2023-01-31T13:39:44.115Z,96117
2023-01-31T13:40:52.834Z,96111
2023-01-31T13:42:01.453Z,96108
2023-01-31T13:43:10.159Z,96110
2023-01-31T13:44:19.889Z,96107
2023-01-31T13:45:29.563Z,96105
2023-01-31T13:46:38.299Z,96115
2023-01-31T13:47:46.910Z,96109
2023-01-31T13:48:56.563Z,96114
2023-01-31T13:50:05.255Z,96111
2023-01-31T13:51:14.919Z,96118
2023-01-31T13:52:22.575Z,96108
2023-01-31T13:53:31.245Z,96111
2023-01-31T13:54:40.938Z,96118
2023-01-31T13:55:50.698Z,96114
2023-01-31T13:56:59.373Z,96114
2023-01-31T13:58:09.034Z,96110
2023-01-31T13:59:17.778Z,96119
2023-01-31T14:00:27.468Z,96115
2023-01-31T14:01:36.231Z,96113
2023-01-31T14:02:44.921Z,96116
2023-01-31T14:03:53.552Z,96114
2023-01-31T14:05:03.252Z,96113
2023-01-31T14:06:11.927Z,96115
2023-01-31T14:07:21.644Z,96117
2023-01-31T14:08:31.338Z,96117
2023-01-31T14:09:41.440Z,96113
2023-01-31T14:10:52.149Z,96116
2023-01-31T14:12:00.852Z,96119
2023-01-31T14:13:09.609Z,96120
2023-01-31T14:14:19.324Z,96118
2023-01-31T14:15:28.000Z,96121
2023-01-31T14:16:36.742Z,96115
2023-01-31T14:17:45.483Z,96114
2023-01-31T14:18:55.191Z,96112
2023-01-31T14:20:04.894Z,96116
2023-01-31T14:21:14.561Z,96111
2023-01-31T14:22:24.235Z,96118
2023-01-31T14:23:35.052Z,96114
2023-01-31T14:24:43.777Z,96107
2023-01-31T14:25:53.446Z,96107
2023-01-31T14:27:02.157Z,96110
2023-01-31T14:28:11.835Z,96110
2023-01-31T14:29:21.512Z,96112
2023-01-31T14:30:31.223Z,96117
2023-01-31T14:31:40.954Z,96111
2023-01-31T14:32:50.640Z,96107
2023-01-31T14:34:00.356Z,96105
2023-01-31T14:35:08.975Z,96098
2023-01-31T14:36:18.699Z,96090
2023-01-31T14:37:27.417Z,96090
2023-01-31T14:38:37.121Z,96091
2023-01-31T14:39:44.800Z,96088
2023-01-31T14:40:53.490Z,96084
2023-01-31T14:42:03.256Z,96087
2023-01-31T14:43:12.004Z,96098
2023-01-31T14:44:21.703Z,96102
2023-01-31T14:45:31.399Z,96108
2023-01-31T14:46:40.108Z,96098
2023-01-31T14:47:49.818Z,96101
2023-01-31T14:48:58.588Z,96095
2023-01-31T14:50:09.295Z,96086